This is the latest recevied weather packets stored in our database for station/object CT4TX-11. If no packets are shown the sender has not sent any weather packets the latest 10 day(s).
| Time | Temp. | Humidity | Pressure | Rain* | Wind** | Luminosity | Snow |
|---|---|---|---|---|---|---|---|
| 1777547101 | 26.11° C | 37% | 1004.7 hPa | - | - | - | - |
| 1777546200 | 26.11° C | 38% | 1004.6 hPa | - | - | - | - |
| 1777545300 | 26.11° C | 38% | 1004.6 hPa | - | - | - | - |
| 1777544400 | 25.56° C | 37% | 1004.6 hPa | - | - | - | - |
| 1777543500 | 25.56° C | 37% | 1004.5 hPa | - | - | - | - |
| 1777542600 | 23.33° C | 40% | 1004.4 hPa | - | - | - | - |
| 1777541700 | 26.11° C | 37% | 1004.3 hPa | - | - | - | - |
| 1777540799 | 25.56° C | 39% | 1004.2 hPa | - | - | - | - |
| 1777539899 | 25.56° C | 40% | 1004.1 hPa | - | - | - | - |
| 1777538999 | 25.56° C | 40% | 1004.1 hPa | - | - | - | - |
| 1777538099 | 25.56° C | 41% | 1003.9 hPa | - | - | - | - |
| 1777537198 | 26.11° C | 40% | 1003.9 hPa | - | - | - | - |
| 1777536298 | 25.56° C | 40% | 1003.7 hPa | - | - | - | - |
| 1777535398 | 25.56° C | 40% | 1003.6 hPa | - | - | - | - |
| 1777534498 | 25.56° C | 41% | 1003.5 hPa | - | - | - | - |
| 1777533597 | 25.56° C | 41% | 1003.4 hPa | - | - | - | - |
| 1777532697 | 25° C | 41% | 1003.2 hPa | - | - | - | - |
| 1777531797 | 25° C | 43% | 1003 hPa | - | - | - | - |
| 1777530897 | 25° C | 41% | 1002.9 hPa | - | - | - | - |
| 1777529996 | 25° C | 42% | 1002.9 hPa | - | - | - | - |
| 1777529096 | 25° C | 41% | 1002.8 hPa | - | - | - | - |
| 1777528196 | 25° C | 42% | 1002.6 hPa | - | - | - | - |
| 1777527296 | 25.56° C | 42% | 1002.4 hPa | - | - | - | - |
| 1777526401 | 25.56° C | 41% | 1002.2 hPa | - | - | - | - |
| 1777525501 | 25° C | 41% | 1002.3 hPa | - | - | - | - |
* Rain since midnight (hover to see other rain measurements)
** Current wind speed in m/s (hover to see current wind gust speed)